Time;durP1;ratioP1;P1;durP2;ratioP2;P2;SDS_P1;SDS_P2;PMS_P1;PMS_P2;Temp;Humidity;BMP_temperature;BMP_pressure;BME280_temperature;BME280_humidity;BME280_pressure;Samples;Min_cycle;Max_cycle;Signal;HPM_P1;HPM_P2
2023/12/09 00:00:28;;;;;;;14.07;3.00;;;6.00;99.90;;;;;;5034798;28;20207;-42
2023/12/09 00:03:00;;;;;;;16.20;3.17;;;6.00;99.90;;;;;;5035090;28;20187;-44
2023/12/09 00:05:26;;;;;;;20.83;3.33;;;6.00;99.90;;;;;;5034731;28;20179;-44
2023/12/09 00:07:52;;;;;;;14.67;3.17;;;6.00;99.90;;;;;;5016985;28;20207;-44
2023/12/09 00:10:18;;;;;;;14.17;3.27;;;5.90;99.90;;;;;;5034577;28;20733;-45
2023/12/09 00:12:43;;;;;;;15.67;3.10;;;6.00;99.90;;;;;;5034595;28;20703;-44
2023/12/09 00:15:09;;;;;;;10.33;2.90;;;6.00;99.90;;;;;;5034788;28;20664;-45
2023/12/09 00:17:35;;;;;;;14.37;3.40;;;6.00;99.90;;;;;;5034435;28;20184;-44
2023/12/09 00:20:01;;;;;;;13.13;2.77;;;6.00;99.90;;;;;;5033962;28;20702;-43
2023/12/09 00:22:29;;;;;;;19.27;3.17;;;6.00;99.90;;;;;;5034582;28;20220;-44
2023/12/09 00:24:56;;;;;;;8.60;2.77;;;6.00;99.90;;;;;;5034598;28;20188;-44
2023/12/09 00:27:21;;;;;;;16.03;3.10;;;6.00;99.90;;;;;;5034606;28;20213;-44
2023/12/09 00:29:50;;;;;;;16.47;3.60;;;6.00;99.90;;;;;;5016688;28;20203;-44
2023/12/09 00:32:22;;;;;;;13.20;3.00;;;5.90;99.90;;;;;;5016881;28;20193;-44
2023/12/09 00:34:47;;;;;;;18.67;2.97;;;5.90;99.90;;;;;;5034254;28;20254;-43
2023/12/09 00:37:13;;;;;;;16.67;3.13;;;6.00;99.90;;;;;;5034387;28;20187;-44
2023/12/09 00:39:45;;;;;;;14.50;3.37;;;6.00;99.90;;;;;;5016809;28;20207;-45
2023/12/09 00:42:10;;;;;;;21.57;4.13;;;6.00;99.90;;;;;;5034471;28;20177;-43
2023/12/09 00:44:36;;;;;;;13.27;3.50;;;5.90;99.90;;;;;;5034601;28;20186;-44
2023/12/09 00:47:03;;;;;;;18.17;3.63;;;5.90;99.90;;;;;;5017383;28;20240;-43
2023/12/09 00:49:29;;;;;;;9.53;3.33;;;5.90;99.90;;;;;;5034055;28;20207;-44
2023/12/09 00:51:55;;;;;;;13.77;3.47;;;5.90;99.90;;;;;;5034130;28;20188;-45
2023/12/09 00:54:29;;;;;;;21.03;3.83;;;5.90;99.90;;;;;;5033865;28;20188;-44
2023/12/09 00:56:55;;;;;;;16.93;3.40;;;5.90;99.90;;;;;;5033788;28;20525;-42
2023/12/09 00:59:20;;;;;;;17.53;3.17;;;5.90;99.90;;;;;;5033853;28;20200;-44
2023/12/09 01:01:52;;;;;;;21.43;3.50;;;5.90;99.90;;;;;;5016225;28;20220;-43
2023/12/09 01:04:21;;;;;;;18.20;3.37;;;5.90;99.90;;;;;;5033910;28;20526;-46
2023/12/09 01:06:47;;;;;;;16.97;3.97;;;5.90;99.90;;;;;;5033806;28;20624;-42
2023/12/09 01:09:13;;;;;;;15.00;3.93;;;6.00;99.90;;;;;;5016209;28;20211;-42
2023/12/09 01:11:42;;;;;;;13.43;3.10;;;6.00;99.90;;;;;;5016366;28;20245;-43
2023/12/09 01:14:08;;;;;;;14.33;3.33;;;6.00;99.90;;;;;;5033638;28;20183;-45
2023/12/09 01:16:33;;;;;;;19.30;3.50;;;6.00;99.90;;;;;;5033475;28;20669;-44
2023/12/09 01:18:59;;;;;;;17.63;3.63;;;6.00;99.90;;;;;;5033438;28;20230;-43
2023/12/09 01:21:29;;;;;;;17.50;3.53;;;5.90;99.90;;;;;;5033814;28;20215;-42
2023/12/09 01:23:55;;;;;;;22.70;4.63;;;5.90;99.90;;;;;;5015835;28;20194;-43
2023/12/09 01:26:20;;;;;;;14.73;3.57;;;5.90;99.90;;;;;;5016251;28;20198;-44
2023/12/09 01:28:46;;;;;;;11.10;3.40;;;5.90;99.90;;;;;;5033469;28;20219;-44
2023/12/09 01:31:12;;;;;;;20.77;3.43;;;5.80;99.90;;;;;;5015675;28;20196;-43
2023/12/09 01:33:38;;;;;;;17.73;3.57;;;5.70;99.90;;;;;;5033487;28;20177;-44
2023/12/09 01:36:07;;;;;;;18.70;3.07;;;5.70;99.90;;;;;;5015784;28;20223;-45
2023/12/09 01:38:32;;;;;;;13.00;3.13;;;5.70;99.90;;;;;;5033464;28;20318;-44
2023/12/09 01:44:20;;;;;;;15.37;3.57;;;5.80;99.90;;;;;;5033253;28;20230;-45
2023/12/09 01:46:46;;;;;;;21.90;3.33;;;5.80;99.90;;;;;;5016223;28;20184;-43
2023/12/09 01:49:13;;;;;;;11.10;3.40;;;5.80;99.90;;;;;;5032897;28;20671;-43
2023/12/09 01:51:43;;;;;;;9.50;3.00;;;5.90;99.90;;;;;;5015606;28;20189;-42
2023/12/09 01:54:13;;;;;;;20.33;3.40;;;5.90;99.90;;;;;;5033399;28;20197;-43
2023/12/09 01:56:42;;;;;;;19.43;3.17;;;5.90;99.90;;;;;;5016261;28;20202;-42
2023/12/09 01:59:10;;;;;;;14.60;3.70;;;5.80;99.90;;;;;;5033075;28;20197;-44
2023/12/09 02:01:37;;;;;;;17.37;3.77;;;5.80;99.90;;;;;;5033164;28;20266;-42
2023/12/09 02:04:05;;;;;;;15.03;3.63;;;5.80;99.90;;;;;;5033100;28;20272;-42
2023/12/09 02:06:31;;;;;;;19.13;3.80;;;5.80;99.90;;;;;;5032813;28;20256;-45
2023/12/09 02:08:59;;;;;;;15.60;3.93;;;5.60;99.90;;;;;;5015106;28;20219;-45
2023/12/09 02:11:38;;;;;;;14.97;3.57;;;5.70;99.90;;;;;;5033005;28;20180;-43
2023/12/09 02:14:29;;;;;;;12.70;3.70;;;5.60;99.90;;;;;;5033310;28;20187;-44
2023/12/09 02:17:38;;;;;;;15.40;3.60;;;5.60;99.90;;;;;;5032870;28;20549;-45
2023/12/09 02:20:05;;;;;;;15.37;3.50;;;5.50;99.90;;;;;;5033104;28;20200;-43
2023/12/09 02:22:33;;;;;;;13.40;4.00;;;5.50;99.90;;;;;;5015907;28;20188;-46
2023/12/09 02:24:59;;;;;;;19.37;3.33;;;5.50;99.90;;;;;;5015267;28;20737;-44
2023/12/09 02:27:50;;;;;;;16.93;4.03;;;5.40;99.90;;;;;;5032979;28;20215;-44
2023/12/09 02:30:57;;;;;;;14.03;3.20;;;5.40;99.90;;;;;;5032897;28;20211;-45
2023/12/09 02:33:24;;;;;;;12.17;3.63;;;5.30;99.90;;;;;;5032450;28;20270;-44
2023/12/09 02:35:56;;;;;;;14.80;3.27;;;5.20;99.90;;;;;;5015131;28;20199;-45
2023/12/09 02:38:28;;;;;;;8.23;3.10;;;5.10;99.90;;;;;;5032996;28;20175;-44
2023/12/09 02:40:58;;;;;;;11.27;3.80;;;5.20;99.90;;;;;;5032939;28;20196;-44
2023/12/09 02:43:24;;;;;;;13.97;3.50;;;5.10;99.90;;;;;;5033081;28;20632;-42
2023/12/09 02:45:53;;;;;;;17.53;3.50;;;5.10;99.90;;;;;;5036190;28;20194;-42
2023/12/09 02:48:20;;;;;;;19.80;3.87;;;5.10;99.90;;;;;;5036223;28;20215;-45
2023/12/09 02:50:49;;;;;;;9.20;2.77;;;5.10;99.90;;;;;;5018628;28;20217;-45
2023/12/09 02:53:15;;;;;;;12.30;3.07;;;5.10;99.90;;;;;;5036169;28;20179;-43
2023/12/09 02:55:40;;;;;;;20.43;3.50;;;5.10;99.90;;;;;;5018440;28;20184;-43
2023/12/09 02:58:06;;;;;;;15.20;3.07;;;5.00;99.90;;;;;;5036300;28;20636;-44
2023/12/09 03:00:31;;;;;;;15.40;3.90;;;5.10;99.90;;;;;;5018331;28;20218;-42
2023/12/09 03:02:57;;;;;;;13.23;3.47;;;5.00;99.90;;;;;;5036687;28;20188;-45
2023/12/09 03:05:25;;;;;;;17.17;3.97;;;5.00;99.90;;;;;;5020338;28;20266;-43
2023/12/09 03:07:51;;;;;;;20.20;3.60;;;5.00;99.90;;;;;;5037335;28;20572;-43
2023/12/09 03:10:17;;;;;;;15.57;3.20;;;5.00;99.90;;;;;;5037655;28;20251;-44
2023/12/09 03:12:42;;;;;;;12.73;3.83;;;5.00;99.90;;;;;;5018842;28;20274;-43
2023/12/09 03:15:10;;;;;;;9.70;2.70;;;4.90;99.90;;;;;;5018155;28;20191;-44
2023/12/09 03:17:36;;;;;;;12.57;3.67;;;4.90;99.90;;;;;;5035559;28;20190;-43
2023/12/09 03:20:08;;;;;;;9.87;2.97;;;4.90;99.90;;;;;;5018018;28;20215;-44
2023/12/09 03:22:34;;;;;;;13.53;3.20;;;4.90;99.90;;;;;;5018408;28;20191;-43
2023/12/09 03:25:04;;;;;;;12.33;3.17;;;4.90;99.90;;;;;;5035512;28;20190;-45
2023/12/09 03:27:39;;;;;;;11.53;3.07;;;4.90;99.90;;;;;;5035993;28;20546;-44
2023/12/09 03:30:08;;;;;;;14.30;3.93;;;4.90;99.90;;;;;;5035700;28;20202;-43
2023/12/09 03:32:33;;;;;;;19.50;3.30;;;4.80;99.90;;;;;;5035453;28;20178;-45
2023/12/09 03:34:59;;;;;;;15.40;3.97;;;4.80;99.90;;;;;;5035377;28;20688;-43
2023/12/09 03:37:26;;;;;;;17.27;3.53;;;4.80;99.90;;;;;;5018196;28;20232;-43
2023/12/09 03:39:55;;;;;;;11.10;3.27;;;4.70;99.90;;;;;;5035501;28;20201;-41
2023/12/09 03:42:24;;;;;;;15.97;2.93;;;4.70;99.90;;;;;;5035478;28;20183;-44
2023/12/09 03:44:49;;;;;;;12.13;2.93;;;4.70;99.90;;;;;;5035453;28;20225;-43
2023/12/09 03:47:21;;;;;;;13.57;3.07;;;4.60;99.90;;;;;;5035332;28;20242;-43
2023/12/09 03:49:46;;;;;;;10.00;2.47;;;4.60;99.90;;;;;;5035077;28;20206;-43
2023/12/09 03:52:12;;;;;;;12.77;3.17;;;4.60;99.90;;;;;;5035085;28;20183;-44
2023/12/09 03:54:40;;;;;;;7.57;2.80;;;4.60;99.90;;;;;;5034432;28;20248;-43
2023/12/09 03:57:06;;;;;;;16.03;3.37;;;4.60;99.90;;;;;;5034384;28;20188;-45
2023/12/09 03:59:32;;;;;;;14.47;3.20;;;4.70;99.90;;;;;;5034828;28;20281;-43
2023/12/09 04:02:03;;;;;;;16.53;3.07;;;4.70;99.90;;;;;;5034884;28;20186;-44
2023/12/09 04:04:30;;;;;;;17.00;2.83;;;4.70;99.90;;;;;;5033984;28;20207;-43
2023/12/09 04:06:55;;;;;;;14.67;3.03;;;4.70;99.90;;;;;;5034688;28;20197;-43
2023/12/09 04:09:22;;;;;;;12.97;3.10;;;4.70;99.90;;;;;;5034648;28;20198;-42
2023/12/09 04:11:48;;;;;;;8.97;2.87;;;4.70;99.90;;;;;;5034833;28;20188;-44
2023/12/09 04:14:18;;;;;;;15.07;3.33;;;4.70;99.90;;;;;;5017378;28;20186;-44
2023/12/09 04:16:44;;;;;;;17.40;3.47;;;4.70;99.90;;;;;;5034561;28;20179;-43
2023/12/09 04:19:09;;;;;;;10.27;2.90;;;4.70;99.90;;;;;;5034936;28;20255;-43
2023/12/09 04:21:38;;;;;;;11.73;2.90;;;4.70;99.90;;;;;;5034504;28;20186;-43
2023/12/09 04:24:05;;;;;;;21.67;3.30;;;4.60;99.90;;;;;;5034652;28;20193;-42
2023/12/09 04:26:31;;;;;;;12.47;3.20;;;4.60;99.90;;;;;;5017013;28;20646;-42
2023/12/09 04:28:59;;;;;;;10.97;3.03;;;4.50;99.90;;;;;;5034199;28;20221;-43
2023/12/09 04:31:25;;;;;;;15.03;3.20;;;4.50;99.90;;;;;;5034325;28;20183;-43
2023/12/09 04:33:51;;;;;;;11.30;2.43;;;4.40;99.90;;;;;;5034440;28;20197;-45
2023/12/09 04:36:18;;;;;;;13.03;2.83;;;4.40;99.90;;;;;;5016694;28;20283;-45
2023/12/09 04:38:44;;;;;;;8.47;2.53;;;4.30;99.90;;;;;;5016505;28;20210;-43
2023/12/09 04:41:10;;;;;;;8.93;3.00;;;4.20;99.90;;;;;;5016710;28;20197;-43
2023/12/09 04:43:45;;;;;;;10.97;3.10;;;4.10;99.90;;;;;;5034077;28;20186;-44
2023/12/09 04:46:11;;;;;;;10.83;3.10;;;4.10;99.90;;;;;;5033881;28;20193;-46
2023/12/09 04:48:39;;;;;;;9.47;2.50;;;4.10;99.90;;;;;;5034366;28;20203;-43
2023/12/09 04:51:05;;;;;;;10.43;2.93;;;4.00;99.90;;;;;;5034214;28;20192;-44
2023/12/09 04:53:31;;;;;;;12.53;3.33;;;3.90;99.90;;;;;;5034109;28;20180;-43
2023/12/09 04:55:56;;;;;;;9.37;2.63;;;3.90;99.90;;;;;;5034368;28;20173;-44
2023/12/09 04:58:22;;;;;;;11.30;3.00;;;3.80;99.90;;;;;;5016805;28;20236;-44
2023/12/09 05:00:48;;;;;;;8.67;2.70;;;3.80;99.90;;;;;;5034717;28;20223;-44
2023/12/09 05:03:13;;;;;;;9.20;2.70;;;3.80;99.90;;;;;;5034069;28;20177;-44
2023/12/09 05:05:39;;;;;;;8.77;2.23;;;3.70;99.90;;;;;;5016324;28;20268;-43
2023/12/09 05:08:05;;;;;;;14.20;2.63;;;3.70;99.90;;;;;;5016355;28;20209;-43
2023/12/09 05:10:35;;;;;;;14.77;2.87;;;3.60;99.90;;;;;;5033784;28;20234;-44
2023/12/09 05:13:01;;;;;;;7.90;2.30;;;3.60;99.90;;;;;;5033641;28;20181;-43
2023/12/09 05:15:26;;;;;;;8.57;2.37;;;3.60;99.90;;;;;;5016002;28;20188;-44
2023/12/09 05:17:58;;;;;;;7.77;2.23;;;3.60;99.90;;;;;;5015943;28;20340;-44
2023/12/09 05:20:25;;;;;;;7.33;2.63;;;3.60;99.90;;;;;;5033456;28;20207;-44
2023/12/09 05:22:50;;;;;;;12.53;2.63;;;3.60;99.90;;;;;;5033443;28;20186;-43
2023/12/09 05:25:16;;;;;;;8.87;2.50;;;3.60;99.90;;;;;;5033369;28;20188;-44
2023/12/09 05:27:42;;;;;;;16.07;2.70;;;3.60;99.90;;;;;;5015829;28;20623;-43
2023/12/09 05:30:13;;;;;;;13.67;2.50;;;3.60;99.90;;;;;;5015884;28;20208;-46
2023/12/09 05:32:39;;;;;;;10.23;2.30;;;3.60;99.90;;;;;;5015851;28;20186;-43
2023/12/09 05:35:06;;;;;;;8.27;2.00;;;3.60;99.90;;;;;;5033206;28;20205;-43
2023/12/09 05:37:32;;;;;;;5.03;2.00;;;3.50;99.90;;;;;;5033204;28;20659;-45
2023/12/09 05:39:58;;;;;;;7.97;2.00;;;3.50;99.90;;;;;;5015841;28;20208;-44
2023/12/09 05:42:25;;;;;;;9.00;2.13;;;3.50;99.90;;;;;;5033292;28;20180;-43
2023/12/09 05:44:55;;;;;;;9.87;2.40;;;3.50;99.90;;;;;;5033217;28;20683;-43
2023/12/09 05:47:25;;;;;;;8.03;1.87;;;3.50;99.90;;;;;;5033184;28;20204;-45
2023/12/09 05:53:12;;;;;;;6.07;2.00;;;3.40;99.90;;;;;;5033280;28;20161;-46
2023/12/09 05:55:38;;;;;;;8.63;2.23;;;3.40;99.90;;;;;;5015906;28;20185;-42
2023/12/09 05:58:03;;;;;;;6.23;2.17;;;3.50;99.90;;;;;;5015429;28;20194;-44
2023/12/09 06:00:30;;;;;;;15.30;3.20;;;3.40;99.90;;;;;;5015350;28;20251;-44
2023/12/09 06:02:56;;;;;;;9.70;2.60;;;3.40;99.90;;;;;;5033251;28;20192;-45
2023/12/09 06:05:26;;;;;;;6.10;2.93;;;3.40;99.90;;;;;;5033334;28;20174;-42
2023/12/09 06:07:54;;;;;;;12.40;2.97;;;3.40;99.90;;;;;;5033310;28;20209;-43
2023/12/09 06:10:21;;;;;;;6.53;2.57;;;3.50;99.90;;;;;;5015610;28;20205;-42
2023/12/09 06:12:48;;;;;;;7.67;2.73;;;3.50;99.90;;;;;;5033046;28;20253;-44
2023/12/09 06:15:14;;;;;;;8.30;3.10;;;3.50;99.90;;;;;;5032951;28;20235;-43
2023/12/09 06:17:40;;;;;;;9.83;2.93;;;3.40;99.90;;;;;;5033088;28;20191;-43
2023/12/09 06:20:08;;;;;;;7.13;2.63;;;3.40;99.90;;;;;;5036036;28;20255;-46
2023/12/09 06:22:33;;;;;;;10.70;2.50;;;3.40;99.90;;;;;;5037253;28;20177;-43
2023/12/09 06:25:04;;;;;;;10.40;2.50;;;3.50;99.90;;;;;;5019266;28;20243;-44
2023/12/09 06:27:36;;;;;;;7.23;2.47;;;3.60;99.90;;;;;;5018772;28;20304;-45
2023/12/09 06:30:06;;;;;;;9.07;2.60;;;3.60;99.90;;;;;;5036720;28;20211;-42
2023/12/09 06:32:32;;;;;;;8.40;2.50;;;3.70;99.90;;;;;;5019700;28;20549;-44
2023/12/09 06:34:58;;;;;;;6.07;2.57;;;3.80;99.90;;;;;;5036327;28;20189;-44
2023/12/09 06:37:23;;;;;;;14.07;2.83;;;3.80;99.90;;;;;;5019129;28;20678;-43
2023/12/09 06:39:49;;;;;;;6.67;1.97;;;3.80;99.90;;;;;;5036528;28;20223;-43
2023/12/09 06:42:15;;;;;;;10.43;2.33;;;3.70;99.90;;;;;;5036588;28;20204;-42
2023/12/09 06:44:43;;;;;;;9.63;2.17;;;3.70;99.90;;;;;;5019018;28;20653;-44
2023/12/09 06:47:12;;;;;;;7.20;2.07;;;3.70;99.90;;;;;;5036548;28;20258;-42
2023/12/09 06:49:39;;;;;;;7.33;2.43;;;3.60;99.90;;;;;;5036359;28;20284;-43
2023/12/09 06:52:05;;;;;;;11.70;2.00;;;3.60;99.90;;;;;;5018607;28;20664;-43
2023/12/09 06:54:31;;;;;;;8.10;2.20;;;3.60;99.90;;;;;;5018636;28;20196;-43
2023/12/09 06:56:57;;;;;;;5.40;2.10;;;3.60;99.90;;;;;;5036086;28;20204;-44
2023/12/09 06:59:23;;;;;;;8.47;1.93;;;3.60;99.90;;;;;;5036270;28;20202;-44
2023/12/09 07:01:49;;;;;;;9.90;2.53;;;3.60;99.90;;;;;;5036239;28;20193;-44
2023/12/09 07:04:15;;;;;;;6.37;2.37;;;3.60;99.90;;;;;;5035976;28;20173;-45
2023/12/09 07:06:41;;;;;;;9.30;2.03;;;3.70;99.90;;;;;;5036211;28;20213;-44
2023/12/09 07:09:08;;;;;;;12.10;2.17;;;3.70;99.90;;;;;;5035874;28;20259;-42
2023/12/09 07:11:38;;;;;;;5.17;1.60;;;3.70;99.90;;;;;;5036129;28;20530;-43
2023/12/09 07:14:04;;;;;;;5.53;2.23;;;3.70;99.90;;;;;;5036087;28;20181;-44
2023/12/09 07:16:31;;;;;;;7.70;1.97;;;3.70;99.90;;;;;;5018106;28;20189;-43
2023/12/09 07:19:00;;;;;;;6.57;1.80;;;3.70;99.90;;;;;;5035866;28;20279;-43
2023/12/09 07:21:28;;;;;;;8.63;1.87;;;3.70;99.90;;;;;;5036160;28;20180;-44
2023/12/09 07:24:06;;;;;;;5.37;1.80;;;3.70;99.90;;;;;;5017958;28;20201;-44
2023/12/09 07:26:34;;;;;;;16.17;2.37;;;3.70;99.90;;;;;;5017969;28;20199;-43
2023/12/09 07:29:08;;;;;;;8.07;2.27;;;3.70;99.90;;;;;;5035462;28;20706;-42
2023/12/09 07:31:34;;;;;;;5.70;2.13;;;3.70;99.90;;;;;;5034995;28;20241;-43
2023/12/09 07:33:59;;;;;;;5.67;1.87;;;3.70;99.90;;;;;;5035685;28;20185;-43
2023/12/09 07:36:28;;;;;;;11.07;2.10;;;3.70;99.90;;;;;;5035291;28;20189;-43
2023/12/09 07:38:55;;;;;;;7.50;2.00;;;3.70;99.90;;;;;;5035482;28;20200;-43
2023/12/09 07:41:23;;;;;;;6.20;2.00;;;3.70;99.90;;;;;;5035399;28;20196;-45
2023/12/09 07:43:49;;;;;;;12.13;2.10;;;3.80;99.90;;;;;;5035809;28;20185;-44
2023/12/09 07:46:15;;;;;;;8.90;2.00;;;3.80;99.90;;;;;;5035218;28;20185;-44
2023/12/09 07:48:41;;;;;;;8.30;2.13;;;3.80;99.90;;;;;;5017393;28;20209;-44
2023/12/09 07:51:11;;;;;;;4.83;2.03;;;3.90;99.90;;;;;;5035033;28;20298;-43
2023/12/09 07:53:37;;;;;;;5.10;1.67;;;3.90;99.90;;;;;;5018067;28;20181;-43
2023/12/09 07:56:05;;;;;;;6.40;2.10;;;3.90;99.90;;;;;;5034991;28;20200;-43
2023/12/09 07:58:31;;;;;;;4.87;2.33;;;4.00;99.90;;;;;;5035084;28;20188;-43
2023/12/09 08:01:00;;;;;;;8.77;2.53;;;4.00;99.90;;;;;;5035172;28;20584;-43
2023/12/09 08:03:36;;;;;;;9.60;2.17;;;4.00;99.90;;;;;;5035004;28;20582;-44
2023/12/09 08:06:02;;;;;;;10.90;1.97;;;4.00;99.90;;;;;;5017191;28;20188;-42
2023/12/09 08:08:29;;;;;;;8.70;1.90;;;4.00;99.90;;;;;;5034611;28;20197;-43
2023/12/09 08:10:55;;;;;;;7.10;1.87;;;4.00;99.90;;;;;;5000627;28;20234;-45
2023/12/09 08:13:20;;;;;;;11.07;2.17;;;4.10;99.90;;;;;;5034986;28;20177;-42
2023/12/09 08:15:46;;;;;;;4.57;1.80;;;4.10;99.90;;;;;;5034582;28;20191;-43
2023/12/09 08:18:18;;;;;;;3.87;1.63;;;4.10;99.90;;;;;;5034518;28;20260;-43
2023/12/09 08:20:48;;;;;;;7.47;2.57;;;4.10;99.90;;;;;;5034713;28;20271;-45
2023/12/09 08:23:15;;;;;;;8.53;2.43;;;4.20;99.90;;;;;;5034547;28;20232;-44
2023/12/09 08:25:46;;;;;;;9.93;2.27;;;4.20;99.90;;;;;;5034698;28;20185;-43
2023/12/09 08:28:12;;;;;;;7.80;2.00;;;4.30;99.90;;;;;;5034312;28;20209;-43
2023/12/09 08:30:46;;;;;;;12.67;2.00;;;4.40;99.90;;;;;;5034650;28;20682;-43
2023/12/09 08:33:12;;;;;;;11.13;2.20;;;4.40;99.90;;;;;;5034281;28;20165;-42
2023/12/09 08:35:38;;;;;;;7.80;2.37;;;4.50;99.90;;;;;;5034196;28;20238;-44
2023/12/09 08:38:04;;;;;;;12.40;2.43;;;4.50;99.90;;;;;;5016641;28;20181;-43
2023/12/09 08:40:29;;;;;;;14.87;2.20;;;4.60;99.90;;;;;;5033907;28;20226;-44
2023/12/09 08:42:55;;;;;;;11.47;2.47;;;4.70;99.90;;;;;;5033823;28;20165;-44
2023/12/09 08:45:22;;;;;;;5.13;1.80;;;4.80;99.90;;;;;;5034099;28;20188;-45
2023/12/09 08:47:50;;;;;;;10.30;2.13;;;4.80;99.90;;;;;;5034167;28;20216;-44
2023/12/09 08:50:18;;;;;;;10.03;2.50;;;4.90;99.90;;;;;;5034282;28;20193;-44
2023/12/09 08:52:47;;;;;;;11.80;2.33;;;4.90;99.90;;;;;;5016668;28;20208;-45
2023/12/09 08:55:17;;;;;;;13.30;2.17;;;4.90;99.90;;;;;;5033964;28;20177;-44
2023/12/09 08:57:45;;;;;;;14.07;2.77;;;5.00;99.90;;;;;;5016561;28;20185;-43
2023/12/09 09:00:18;;;;;;;6.63;2.27;;;5.00;99.90;;;;;;5033918;28;20699;-44
2023/12/09 09:02:44;;;;;;;9.33;2.63;;;5.10;99.90;;;;;;5034484;28;20247;-44
2023/12/09 09:05:10;;;;;;;6.17;2.77;;;5.10;99.90;;;;;;5033850;28;20712;-45
2023/12/09 09:07:40;;;;;;;9.50;2.77;;;5.20;99.90;;;;;;5034033;28;20251;-45
2023/12/09 09:10:08;;;;;;;10.77;2.63;;;5.30;99.90;;;;;;5033729;28;20199;-44
2023/12/09 09:12:35;;;;;;;18.60;3.27;;;5.30;99.90;;;;;;5016178;28;20242;-43
2023/12/09 09:15:04;;;;;;;13.07;3.00;;;5.30;99.90;;;;;;5034295;28;20236;-45
2023/12/09 09:17:30;;;;;;;13.30;2.83;;;5.30;99.90;;;;;;5033860;28;20223;-43
2023/12/09 09:19:56;;;;;;;17.53;3.07;;;5.40;99.90;;;;;;5033833;28;20270;-46
2023/12/09 09:22:25;;;;;;;11.57;2.87;;;5.40;99.90;;;;;;5016536;28;20185;-44
2023/12/09 09:24:54;;;;;;;17.73;3.00;;;5.50;99.90;;;;;;5034366;28;20173;-43
2023/12/09 09:27:20;;;;;;;13.73;2.70;;;5.60;99.90;;;;;;5032753;28;20293;-43
2023/12/09 09:29:46;;;;;;;18.43;2.67;;;5.70;99.90;;;;;;5016102;28;20236;-43
2023/12/09 09:32:11;;;;;;;14.33;2.87;;;5.70;99.90;;;;;;5015912;28;20178;-42
2023/12/09 09:34:41;;;;;;;16.57;3.23;;;5.80;99.90;;;;;;5033454;28;20179;-43
2023/12/09 09:37:14;;;;;;;14.70;2.97;;;5.90;99.90;;;;;;5033730;28;20523;-42
2023/12/09 09:39:40;;;;;;;17.50;2.70;;;6.00;99.90;;;;;;5033505;28;20195;-44
2023/12/09 09:42:21;;;;;;;10.47;2.37;;;6.10;99.90;;;;;;5015684;28;20565;-43
2023/12/09 09:45:19;;;;;;;15.43;2.60;;;6.20;99.90;;;;;;5033725;28;20161;-44
2023/12/09 09:47:48;;;;;;;20.17;2.33;;;6.30;99.90;;;;;;5034147;28;20226;-43
2023/12/09 09:50:22;;;;;;;19.57;3.47;;;6.50;99.90;;;;;;5033127;28;20260;-43
2023/12/09 09:52:52;;;;;;;18.33;2.83;;;6.60;99.90;;;;;;5036016;28;20169;-43
2023/12/09 09:55:25;;;;;;;22.23;3.27;;;6.70;99.90;;;;;;5040377;28;20169;-44
2023/12/09 09:57:52;;;;;;;23.70;2.80;;;6.80;99.90;;;;;;5040338;28;20253;-44
2023/12/09 10:00:19;;;;;;;24.13;2.77;;;6.90;99.90;;;;;;5021657;28;20233;-43
2023/12/09 10:02:49;;;;;;;19.30;3.23;;;7.00;99.90;;;;;;5018879;28;20199;-43
2023/12/09 10:05:40;;;;;;;25.03;2.87;;;7.10;99.90;;;;;;5036979;28;20573;-43
2023/12/09 10:08:06;;;;;;;23.90;2.57;;;7.30;99.90;;;;;;5037160;28;20237;-43
2023/12/09 10:10:35;;;;;;;16.07;3.10;;;7.30;99.90;;;;;;5036993;28;20228;-43
2023/12/09 10:13:04;;;;;;;16.50;2.63;;;7.40;99.90;;;;;;5036949;28;20183;-43
2023/12/09 10:18:56;;;;;;;16.13;2.70;;;7.70;99.90;;;;;;5036821;28;20250;-44
2023/12/09 10:21:22;;;;;;;12.30;2.40;;;7.80;99.90;;;;;;5037083;28;20172;-44
2023/12/09 10:23:47;;;;;;;20.53;3.43;;;7.90;99.90;;;;;;5037389;28;20183;-44
2023/12/09 10:26:14;;;;;;;17.90;3.40;;;8.00;99.90;;;;;;5019203;28;20180;-44
2023/12/09 10:28:40;;;;;;;22.57;3.50;;;8.10;99.90;;;;;;5018842;28;20208;-43
2023/12/09 10:31:08;;;;;;;23.60;3.00;;;8.20;99.90;;;;;;5019239;28;20184;-45
2023/12/09 10:33:40;;;;;;;25.30;3.40;;;8.20;99.90;;;;;;5036978;28;20214;-45
2023/12/09 10:36:08;;;;;;;13.60;2.77;;;8.30;99.90;;;;;;5019024;28;20204;-45
2023/12/09 10:38:42;;;;;;;20.33;3.20;;;8.40;99.90;;;;;;5036708;28;20212;-45
2023/12/09 10:41:10;;;;;;;19.20;3.07;;;8.40;99.90;;;;;;5036644;28;20227;-43
2023/12/09 10:43:37;;;;;;;27.00;3.97;;;8.50;99.90;;;;;;5036412;28;20180;-43
2023/12/09 10:46:04;;;;;;;13.97;2.90;;;8.50;99.90;;;;;;5036362;28;20191;-45
2023/12/09 10:48:31;;;;;;;19.13;2.83;;;8.50;99.90;;;;;;5036168;28;20555;-44
2023/12/09 10:50:57;;;;;;;17.57;3.30;;;8.50;99.90;;;;;;5036466;28;20184;-44
2023/12/09 10:53:25;;;;;;;13.27;2.37;;;8.40;99.90;;;;;;5036483;28;20535;-43
2023/12/09 10:55:51;;;;;;;20.83;2.60;;;8.40;99.90;;;;;;5018520;28;20543;-44
2023/12/09 10:58:23;;;;;;;17.83;2.70;;;8.40;99.90;;;;;;5035928;28;20585;-43
2023/12/09 11:00:51;;;;;;;22.40;2.77;;;8.40;99.90;;;;;;5036309;28;20169;-44
2023/12/09 11:03:17;;;;;;;11.83;2.40;;;8.30;99.90;;;;;;5036083;28;20220;-44
2023/12/09 11:05:51;;;;;;;11.87;2.40;;;8.30;99.90;;;;;;5035613;28;20268;-45
2023/12/09 11:08:17;;;;;;;21.37;3.03;;;8.30;99.90;;;;;;5036312;28;20563;-45
2023/12/09 11:10:45;;;;;;;21.13;2.97;;;8.30;99.90;;;;;;5034985;28;20212;-42
2023/12/09 11:13:19;;;;;;;18.10;2.80;;;8.20;99.90;;;;;;5035787;28;20664;-45
2023/12/09 11:15:48;;;;;;;21.77;2.73;;;8.20;99.90;;;;;;5035802;28;20680;-45
2023/12/09 11:18:17;;;;;;;12.53;2.00;;;8.20;99.90;;;;;;5035225;28;20193;-45
2023/12/09 11:20:45;;;;;;;13.40;2.47;;;8.20;99.90;;;;;;5018584;28;20201;-43
2023/12/09 11:23:12;;;;;;;11.40;2.37;;;8.20;99.90;;;;;;5035607;28;20223;-43
2023/12/09 11:25:42;;;;;;;11.77;2.00;;;8.20;99.90;;;;;;5018081;28;20665;-44
2023/12/09 11:28:13;;;;;;;7.93;2.00;;;8.20;99.90;;;;;;5035496;28;20196;-45
2023/12/09 11:30:44;;;;;;;6.20;1.63;;;8.20;99.90;;;;;;5018716;28;20209;-44
2023/12/09 11:33:10;;;;;;;8.70;1.80;;;8.20;99.90;;;;;;5035779;28;20164;-44
2023/12/09 11:35:38;;;;;;;11.00;1.80;;;8.20;99.90;;;;;;5035392;28;20197;-44
2023/12/09 11:38:12;;;;;;;8.50;1.93;;;8.20;99.90;;;;;;5017925;28;20181;-44
2023/12/09 11:40:37;;;;;;;12.00;1.77;;;8.20;99.90;;;;;;5035194;28;20217;-43
2023/12/09 11:43:10;;;;;;;12.60;2.23;;;8.30;99.90;;;;;;5017551;28;20188;-44
2023/12/09 11:45:36;;;;;;;7.60;1.80;;;8.30;99.90;;;;;;5035948;28;20629;-44
2023/12/09 11:48:04;;;;;;;14.07;1.80;;;8.30;99.90;;;;;;5035505;28;20673;-44
2023/12/09 11:50:30;;;;;;;13.77;1.87;;;8.40;99.90;;;;;;5035141;28;20208;-43
2023/12/09 11:52:58;;;;;;;8.30;1.60;;;8.40;99.90;;;;;;5017423;28;20548;-45
2023/12/09 11:55:24;;;;;;;7.67;1.40;;;8.50;99.90;;;;;;5035013;28;20184;-44
2023/12/09 11:57:49;;;;;;;13.37;1.73;;;8.50;99.90;;;;;;5035028;28;20177;-45
2023/12/09 12:00:15;;;;;;;12.90;1.43;;;8.50;99.90;;;;;;5017318;28;20203;-43
2023/12/09 12:02:42;;;;;;;12.40;1.63;;;8.50;99.90;;;;;;5017584;28;20318;-44
2023/12/09 12:05:11;;;;;;;10.03;1.30;;;8.50;99.90;;;;;;5034889;28;20637;-43
2023/12/09 12:07:38;;;;;;;9.63;1.53;;;8.50;99.90;;;;;;5034615;28;20210;-44
2023/12/09 12:10:07;;;;;;;7.27;1.57;;;8.50;99.90;;;;;;5034667;28;20280;-43
2023/12/09 12:12:33;;;;;;;11.77;1.80;;;8.50;99.90;;;;;;5017108;28;20189;-43
2023/12/09 12:15:02;;;;;;;8.30;1.30;;;8.50;99.90;;;;;;5034932;28;20177;-43
2023/12/09 12:17:36;;;;;;;6.93;1.33;;;8.40;99.90;;;;;;5034015;28;20211;-43
2023/12/09 12:20:01;;;;;;;8.00;1.27;;;8.40;99.90;;;;;;5018332;28;20197;-43
2023/12/09 12:22:30;;;;;;;6.50;1.53;;;8.40;99.90;;;;;;5034827;28;20191;-44
2023/12/09 12:24:56;;;;;;;7.17;1.60;;;8.40;99.90;;;;;;5034685;28;20239;-43
2023/12/09 12:27:22;;;;;;;10.17;1.60;;;8.40;99.90;;;;;;5034372;28;20187;-43
2023/12/09 12:29:48;;;;;;;5.73;1.40;;;8.30;99.90;;;;;;5016784;28;20290;-45
2023/12/09 12:32:26;;;;;;;7.77;1.30;;;8.40;99.90;;;;;;5017090;28;20604;-43
2023/12/09 12:34:52;;;;;;;12.27;1.70;;;8.30;99.90;;;;;;5034257;28;20674;-44
2023/12/09 12:37:26;;;;;;;6.23;1.30;;;8.30;99.90;;;;;;4965943;27;4796161;-43
2023/12/09 12:39:52;;;;;;;4.77;1.23;;;8.30;99.90;;;;;;5099349;28;20281;-43
2023/12/09 12:42:19;;;;;;;5.83;0.83;;;8.20;99.90;;;;;;5090772;28;20197;-44
2023/12/09 12:44:46;;;;;;;5.93;1.40;;;8.20;99.90;;;;;;5073232;28;20221;-43
2023/12/09 12:47:12;;;;;;;10.00;1.10;;;8.20;99.90;;;;;;5087268;28;20187;-45
2023/12/09 12:49:38;;;;;;;5.03;1.00;;;8.20;99.90;;;;;;5072940;28;20747;-45
2023/12/09 12:52:06;;;;;;;3.77;1.00;;;8.20;99.90;;;;;;5090692;28;20229;-44
2023/12/09 12:54:31;;;;;;;2.83;0.97;;;8.20;99.90;;;;;;5090443;28;20265;-44
2023/12/09 12:57:00;;;;;;;2.27;0.67;;;8.10;99.90;;;;;;5090480;28;20289;-44
2023/12/09 12:59:29;;;;;;;9.10;1.07;;;8.10;99.90;;;;;;5090445;28;20202;-44
2023/12/09 13:01:56;;;;;;;2.63;0.80;;;8.10;99.90;;;;;;5090814;28;20179;-44
2023/12/09 13:04:23;;;;;;;4.80;0.80;;;8.10;99.90;;;;;;5090453;28;20194;-44